Time;durP1;ratioP1;P1;durP2;ratioP2;P2;SDS_P1;SDS_P2;PMS_P1;PMS_P2;Temp;Humidity;BMP_temperature;BMP_pressure;BME280_temperature;BME280_humidity;BME280_pressure;Samples;Min_cycle;Max_cycle;Signal;HPM_P1;HPM_P2
2022/10/07 00:02:22;;;;;;;;;;;;;;;12.46;58.00;102716.19;5068938;28;19927;-51
2022/10/07 00:04:47;;;;;;;;;;;;;;;12.45;58.07;102714.47;5067973;28;20402;-53
2022/10/07 00:07:13;;;;;;;;;;;;;;;12.44;58.21;102710.97;5068844;28;19920;-54
2022/10/07 00:09:39;;;;;;;;;;;;;;;12.43;58.33;102708.38;5061658;28;19928;-52
2022/10/07 00:12:05;;;;;;;;;;;;;;;12.42;58.39;102706.66;5065181;28;19920;-52
2022/10/07 00:14:30;;;;;;;;;;;;;;;12.43;58.47;102705.72;5066961;28;19917;-52
2022/10/07 00:16:56;;;;;;;;;;;;;;;12.42;58.48;102709.28;5070281;28;19931;-52
2022/10/07 00:19:21;;;;;;;;;;;;;;;12.40;58.58;102704.06;5067085;28;20429;-52
2022/10/07 00:21:46;;;;;;;;;;;;;;;12.39;58.46;102698.84;5065313;28;19967;-52
2022/10/07 00:24:13;;;;;;;;;;;;;;;12.38;58.57;102699.78;5066208;28;19921;-52
2022/10/07 00:26:38;;;;;;;;;;;;;;;12.37;58.62;102708.59;5068540;28;19928;-54
2022/10/07 00:29:05;;;;;;;;;;;;;;;12.36;58.65;102707.72;5069803;28;19928;-52
2022/10/07 00:31:31;;;;;;;;;;;;;;;12.32;58.61;102698.19;5068129;28;19917;-51
2022/10/07 00:33:57;;;;;;;;;;;;;;;12.28;58.71;102689.50;5064209;28;19920;-52
2022/10/07 00:36:24;;;;;;;;;;;;;;;12.26;58.64;102686.03;5068932;28;19997;-52
2022/10/07 00:38:56;;;;;;;;;;;;;;;12.23;58.82;102693.22;5066897;28;19928;-52
2022/10/07 00:41:26;;;;;;;;;;;;;;;12.18;58.65;102694.22;5068960;28;20421;-52
2022/10/07 00:43:51;;;;;;;;;;;;;;;12.12;58.55;102689.16;5065988;28;19978;-52
2022/10/07 00:46:25;;;;;;;;;;;;;;;12.09;58.66;102680.50;5068685;28;19932;-51
2022/10/07 00:48:51;;;;;;;;;;;;;;;12.07;58.88;102679.69;5067916;28;19927;-52
2022/10/07 00:51:17;;;;;;;;;;;;;;;12.07;58.87;102679.69;5065920;28;19916;-51
2022/10/07 00:53:45;;;;;;;;;;;;;;;12.06;58.88;102678.81;5068892;28;19916;-51
2022/10/07 00:56:12;;;;;;;;;;;;;;;12.05;58.83;102674.44;5068619;28;19935;-51
2022/10/07 00:58:40;;;;;;;;;;;;;;;12.06;58.82;102670.03;5067584;28;20502;-52
2022/10/07 01:01:05;;;;;;;;;;;;;;;12.05;58.94;102671.78;5067442;28;19928;-52
2022/10/07 01:03:34;;;;;;;;;;;;;;;12.06;58.67;102677.94;5061845;28;19928;-53
2022/10/07 01:06:00;;;;;;;;;;;;;;;12.03;58.90;102674.50;5066699;28;19977;-52
2022/10/07 01:08:25;;;;;;;;;;;;;;;12.02;58.79;102662.22;5068211;28;19920;-52
2022/10/07 01:11:00;;;;;;;;;;;;;;;11.99;58.88;102667.59;5070181;28;20465;-52
2022/10/07 01:13:25;;;;;;;;;;;;;;;11.96;58.96;102667.66;5066465;28;20173;-53
2022/10/07 01:15:58;;;;;;;;;;;;;;;11.94;58.75;102655.44;5066982;28;19925;-53
2022/10/07 01:18:30;;;;;;;;;;;;;;;11.95;58.67;102651.88;5065506;28;19955;-52
2022/10/07 01:20:59;;;;;;;;;;;;;;;11.94;58.76;102645.75;5063341;28;19986;-52
2022/10/07 01:23:27;;;;;;;;;;;;;;;11.93;58.89;102649.31;5065338;28;19982;-52
2022/10/07 01:25:55;;;;;;;;;;;;;;;11.93;58.76;102645.78;5066068;28;19958;-52
2022/10/07 01:28:41;;;;;;;;;;;;;;;11.89;58.88;102648.53;5066893;28;19947;-52
2022/10/07 01:31:08;;;;;;;;;;;;;;;11.88;59.03;102638.03;5064340;28;19923;-52
2022/10/07 01:33:35;;;;;;;;;;;;;;;11.89;58.94;102634.50;5062303;28;19970;-51
2022/10/07 01:36:06;;;;;;;;;;;;;;;11.89;59.00;102624.78;5067623;28;19929;-52
2022/10/07 01:38:33;;;;;;;;;;;;;;;11.89;58.92;102627.44;5064304;28;20439;-52
2022/10/07 01:41:07;;;;;;;;;;;;;;;11.88;58.89;102619.56;5063853;28;20066;-52
2022/10/07 01:43:33;;;;;;;;;;;;;;;11.87;58.95;102625.75;5066476;28;19923;-52
2022/10/07 01:45:58;;;;;;;;;;;;;;;11.86;58.89;102630.19;5066141;28;19924;-53
2022/10/07 01:48:24;;;;;;;;;;;;;;;11.86;59.05;102624.91;5063643;28;19928;-52
2022/10/07 01:50:50;;;;;;;;;;;;;;;11.83;59.12;102606.53;5060821;28;19924;-52
2022/10/07 01:53:34;;;;;;;;;;;;;;;11.81;58.93;102616.28;5066862;28;19920;-54
2022/10/07 01:55:59;;;;;;;;;;;;;;;11.77;58.99;102621.72;5064276;28;20309;-52
2022/10/07 01:58:33;;;;;;;;;;;;;;;11.74;59.11;102625.28;5068258;28;19913;-53
2022/10/07 02:01:08;;;;;;;;;;;;;;;11.72;59.20;102616.59;5065391;28;19924;-52
2022/10/07 02:03:36;;;;;;;;;;;;;;;11.71;59.14;102614.88;5062950;28;19989;-53
2022/10/07 02:06:02;;;;;;;;;;;;;;;11.69;59.32;102616.69;5066266;28;19916;-54
2022/10/07 02:08:38;;;;;;;;;;;;;;;11.67;59.18;102614.06;5064996;28;19923;-54
2022/10/07 02:11:12;;;;;;;;;;;;;;;11.66;59.19;102624.69;5067137;28;19924;-52
2022/10/07 02:13:38;;;;;;;;;;;;;;;11.63;59.25;102611.59;5065487;28;19920;-54
2022/10/07 02:16:04;;;;;;;;;;;;;;;11.59;59.20;102610.84;5067728;28;19917;-51
2022/10/07 02:18:32;;;;;;;;;;;;;;;11.54;59.20;102613.63;5065352;28;19979;-52
2022/10/07 02:20:59;;;;;;;;;;;;;;;11.51;59.21;102608.44;5064331;28;20428;-51
2022/10/07 02:23:24;;;;;;;;;;;;;;;11.49;59.37;102610.28;5061725;28;19920;-54
2022/10/07 02:25:51;;;;;;;;;;;;;;;11.46;59.34;102610.34;5063336;28;19916;-53
2022/10/07 02:28:19;;;;;;;;;;;;;;;11.41;59.26;102607.03;5065208;28;19947;-52
2022/10/07 02:30:46;;;;;;;;;;;;;;;11.40;59.51;102613.22;5066476;28;20331;-51
2022/10/07 02:33:13;;;;;;;;;;;;;;;11.37;59.43;102605.38;5065290;28;19939;-54
2022/10/07 02:35:42;;;;;;;;;;;;;;;11.34;59.45;102605.47;5067908;28;20433;-52
2022/10/07 02:38:10;;;;;;;;;;;;;;;11.32;59.59;102608.16;5069044;28;19932;-53
2022/10/07 02:40:39;;;;;;;;;;;;;;;11.29;59.50;102601.19;5064936;28;20035;-53
2022/10/07 02:43:13;;;;;;;;;;;;;;;11.27;59.42;102603.03;5066763;28;19950;-52
2022/10/07 02:45:42;;;;;;;;;;;;;;;11.27;59.69;102602.16;5063098;28;19986;-53
2022/10/07 02:48:17;;;;;;;;;;;;;;;11.27;59.60;102589.00;5064684;28;19924;-51
2022/10/07 02:50:46;;;;;;;;;;;;;;;11.24;59.64;102595.25;5065482;28;19966;-54
2022/10/07 02:53:12;;;;;;;;;;;;;;;11.21;59.69;102603.22;5080319;28;20370;-53
2022/10/07 02:55:38;;;;;;;;;;;;;;;11.18;59.48;102587.50;5064832;28;20428;-51
2022/10/07 02:58:05;;;;;;;;;;;;;;;11.16;59.48;102591.09;5066980;28;19971;-52
2022/10/07 03:00:34;;;;;;;;;;;;;;;11.13;59.69;102581.50;5065592;28;20018;-51
2022/10/07 03:03:01;;;;;;;;;;;;;;;11.09;59.66;102582.53;5060224;28;19924;-52
2022/10/07 03:05:27;;;;;;;;;;;;;;;11.07;59.68;102592.25;5065488;28;20035;-56
2022/10/07 03:07:58;;;;;;;;;;;;;;;11.04;59.88;102587.91;5068529;28;19920;-57
2022/10/07 03:10:25;;;;;;;;;;;;;;;11.04;59.80;102579.16;5073490;28;19924;-53
2022/10/07 03:12:51;;;;;;;;;;;;;;;11.03;59.69;102580.06;5070115;28;19931;-55
2022/10/07 03:15:16;;;;;;;;;;;;;;;11.02;59.77;102573.06;5067980;28;19921;-55
2022/10/07 03:17:41;;;;;;;;;;;;;;;10.97;59.73;102571.44;5071477;28;20301;-52
2022/10/07 03:20:07;;;;;;;;;;;;;;;10.94;59.69;102571.56;5071410;28;19920;-54
2022/10/07 03:22:32;;;;;;;;;;;;;;;10.93;59.66;102575.09;5071080;28;19928;-53
2022/10/07 03:24:58;;;;;;;;;;;;;;;10.90;59.82;102569.91;5068795;28;20320;-53
2022/10/07 03:27:24;;;;;;;;;;;;;;;10.89;59.87;102568.19;5070336;28;19927;-53
2022/10/07 03:29:49;;;;;;;;;;;;;;;10.87;59.83;102570.00;5068842;28;19934;-54
2022/10/07 03:32:15;;;;;;;;;;;;;;;10.86;59.70;102573.53;5064512;28;19930;-54
2022/10/07 03:34:40;;;;;;;;;;;;;;;10.85;59.74;102563.06;5069016;28;20011;-52
2022/10/07 03:37:05;;;;;;;;;;;;;;;10.84;59.92;102564.81;5070366;28;20351;-52
2022/10/07 03:39:31;;;;;;;;;;;;;;;10.83;59.88;102563.09;5068396;28;20324;-52
2022/10/07 03:41:56;;;;;;;;;;;;;;;10.81;59.87;102564.94;5068429;28;19917;-52
2022/10/07 03:44:22;;;;;;;;;;;;;;;10.78;59.85;102550.06;5065793;28;19949;-51
2022/10/07 03:46:48;;;;;;;;;;;;;;;10.76;59.92;102553.66;5069222;28;19912;-51
2022/10/07 03:49:14;;;;;;;;;;;;;;;10.74;59.89;102544.94;5069786;28;19974;-51
2022/10/07 03:51:39;;;;;;;;;;;;;;;10.71;59.74;102548.53;5070234;28;19974;-52
2022/10/07 03:54:05;;;;;;;;;;;;;;;10.70;59.97;102549.44;5070219;28;19928;-51
2022/10/07 03:56:30;;;;;;;;;;;;;;;10.70;59.85;102545.91;5070476;28;20461;-52
2022/10/07 03:58:56;;;;;;;;;;;;;;;10.70;59.76;102551.19;5068926;28;19917;-51
2022/10/07 04:01:21;;;;;;;;;;;;;;;10.67;59.70;102547.72;5068114;28;19920;-52
2022/10/07 04:03:46;;;;;;;;;;;;;;;10.64;59.77;102544.34;5067830;28;20011;-52
2022/10/07 04:06:12;;;;;;;;;;;;;;;10.60;59.79;102538.31;5070473;28;20408;-51
2022/10/07 04:08:39;;;;;;;;;;;;;;;10.60;59.97;102535.69;5070736;28;19956;-52
2022/10/07 04:11:04;;;;;;;;;;;;;;;10.56;59.77;102534.03;5069292;28;20183;-53
2022/10/07 04:13:30;;;;;;;;;;;;;;;10.54;59.91;102530.56;5068572;28;19931;-53
2022/10/07 04:15:56;;;;;;;;;;;;;;;10.52;60.07;102535.03;5060014;28;20489;-51
2022/10/07 04:18:21;;;;;;;;;;;;;;;10.50;59.98;102531.59;5070205;28;19924;-52
2022/10/07 04:20:47;;;;;;;;;;;;;;;10.47;59.88;102544.84;5062567;28;19932;-52
2022/10/07 04:23:12;;;;;;;;;;;;;;;10.46;59.97;102537.84;5061964;28;20452;-51
2022/10/07 04:25:41;;;;;;;;;;;;;;;10.43;59.96;102530.03;5068126;28;19924;-53
2022/10/07 04:28:14;;;;;;;;;;;;;;;10.41;60.07;102537.09;5067796;28;19971;-53
2022/10/07 04:30:42;;;;;;;;;;;;;;;10.37;60.14;102534.53;5057226;28;20405;-52
2022/10/07 04:33:08;;;;;;;;;;;;;;;10.37;60.01;102531.88;5053246;28;19920;-52
2022/10/07 04:35:35;;;;;;;;;;;;;;;10.33;59.92;102527.63;5068549;28;19924;-53
2022/10/07 04:38:00;;;;;;;;;;;;;;;10.32;60.07;102518.03;5062113;28;19932;-54
2022/10/07 04:40:26;;;;;;;;;;;;;;;10.30;60.17;102521.56;5064459;28;19920;-53
2022/10/07 04:45:36;;;;;;;;;;;;;;;10.27;60.20;102511.16;5068425;28;20025;-53
2022/10/07 04:48:05;;;;;;;;;;;;;;;10.24;60.08;102509.47;5060993;28;19931;-52
2022/10/07 04:50:31;;;;;;;;;;;;;;;10.22;60.12;102504.25;5065631;28;19940;-54
2022/10/07 04:52:56;;;;;;;;;;;;;;;10.21;60.27;102502.53;5061549;28;19924;-53
2022/10/07 04:55:22;;;;;;;;;;;;;;;10.23;59.98;102499.84;5052026;28;19928;-53
2022/10/07 04:57:48;;;;;;;;;;;;;;;10.20;60.28;102505.22;5065477;28;20491;-50
2022/10/07 05:00:14;;;;;;;;;;;;;;;10.18;60.07;102502.59;5063546;28;19932;-51
2022/10/07 05:02:39;;;;;;;;;;;;;;;10.17;60.16;102500.88;5057478;28;19925;-51
2022/10/07 05:05:05;;;;;;;;;;;;;;;10.18;60.24;102501.75;5063128;28;19984;-52
2022/10/07 05:07:31;;;;;;;;;;;;;;;10.18;60.34;102483.34;5060122;28;19920;-55
2022/10/07 05:09:56;;;;;;;;;;;;;;;10.16;60.33;102495.66;5070374;28;19916;-54
2022/10/07 05:12:22;;;;;;;;;;;;;;;10.15;60.35;102491.31;5067532;28;19924;-54
2022/10/07 05:14:48;;;;;;;;;;;;;;;10.16;60.28;102493.03;5064110;28;19992;-54
2022/10/07 05:17:13;;;;;;;;;;;;;;;10.14;60.12;102495.69;5066772;28;20448;-54
2022/10/07 05:19:39;;;;;;;;;;;;;;;10.13;60.32;102487.84;5070303;28;20464;-54
2022/10/07 05:22:04;;;;;;;;;;;;;;;10.11;60.24;102490.53;5066955;28;20388;-55
2022/10/07 05:24:30;;;;;;;;;;;;;;;10.11;60.23;102489.66;5063621;28;19920;-54
2022/10/07 05:26:55;;;;;;;;;;;;;;;10.09;60.22;102479.19;5068643;28;19932;-53
2022/10/07 05:29:20;;;;;;;;;;;;;;;10.07;60.27;102484.47;5063945;28;19924;-51
2022/10/07 05:31:47;;;;;;;;;;;;;;;10.05;60.44;102478.44;5067580;28;20037;-51
2022/10/07 05:34:14;;;;;;;;;;;;;;;10.05;60.27;102478.44;5068430;28;19916;-53
2022/10/07 05:36:40;;;;;;;;;;;;;;;10.04;60.33;102487.22;5068603;28;19933;-52
2022/10/07 05:39:06;;;;;;;;;;;;;;;10.03;60.27;102477.59;5068610;28;20387;-53
2022/10/07 05:41:31;;;;;;;;;;;;;;;10.02;60.48;102472.38;5067173;28;19965;-51
2022/10/07 05:43:58;;;;;;;;;;;;;;;10.01;60.48;102478.53;5063268;28;19966;-51
2022/10/07 05:46:24;;;;;;;;;;;;;;;9.99;60.51;102481.22;5068121;28;19920;-52
2022/10/07 05:48:50;;;;;;;;;;;;;;;10.00;60.45;102482.06;5069301;28;20325;-51
2022/10/07 05:51:17;;;;;;;;;;;;;;;10.00;60.54;102484.69;5067999;28;19927;-50
2022/10/07 05:53:45;;;;;;;;;;;;;;;10.01;60.56;102478.53;5063113;28;20378;-51
2022/10/07 05:56:12;;;;;;;;;;;;;;;10.01;60.51;102479.41;5069091;28;19927;-52
2022/10/07 05:58:38;;;;;;;;;;;;;;;10.03;60.45;102485.50;5065162;28;19924;-52
2022/10/07 06:01:05;;;;;;;;;;;;;;;10.06;60.43;102481.91;5068697;28;19924;-52
2022/10/07 06:03:31;;;;;;;;;;;;;;;10.07;60.50;102487.13;5067064;28;20308;-51
2022/10/07 06:05:58;;;;;;;;;;;;;;;10.09;60.57;102483.59;5067593;28;19920;-52
2022/10/07 06:08:24;;;;;;;;;;;;;;;10.09;60.50;102481.84;5066317;28;19916;-52
2022/10/07 06:13:34;;;;;;;;;;;;;;;10.10;60.65;102474.78;5063353;28;20334;-52
2022/10/07 06:16:01;;;;;;;;;;;;;;;10.11;60.64;102479.16;5069409;28;19978;-52
2022/10/07 06:18:26;;;;;;;;;;;;;;;10.13;60.84;102485.22;5066914;28;19916;-52
2022/10/07 06:20:55;;;;;;;;;;;;;;;10.14;60.89;102479.91;5065289;28;20026;-54
2022/10/07 06:23:20;;;;;;;;;;;;;;;10.17;60.86;102477.19;5067622;28;19921;-54
2022/10/07 06:25:54;;;;;;;;;;;;;;;10.19;60.75;102474.53;5066948;28;19996;-54
2022/10/07 06:28:19;;;;;;;;;;;;;;;10.23;60.87;102473.53;5062808;28;20593;-52
2022/10/07 06:30:47;;;;;;;;;;;;;;;10.24;61.02;102475.25;5064798;28;20125;-54
2022/10/07 06:33:12;;;;;;;;;;;;;;;10.26;60.88;102470.81;5066424;28;20381;-57
2022/10/07 06:35:38;;;;;;;;;;;;;;;10.29;60.96;102468.09;5068397;28;19958;-52
2022/10/07 06:38:04;;;;;;;;;;;;;;;10.31;61.01;102463.66;5065643;28;19925;-52
2022/10/07 06:40:29;;;;;;;;;;;;;;;10.34;61.12;102468.84;5065723;28;19922;-52
2022/10/07 06:42:54;;;;;;;;;;;;;;;10.36;61.05;102472.25;5063118;28;20119;-53
2022/10/07 06:45:20;;;;;;;;;;;;;;;10.40;61.03;102473.09;5067568;28;19927;-51
2022/10/07 06:47:45;;;;;;;;;;;;;;;10.44;61.15;102476.50;5066925;28;19932;-52
2022/10/07 06:50:10;;;;;;;;;;;;;;;10.47;61.15;102477.25;5068261;28;20007;-54
2022/10/07 06:52:35;;;;;;;;;;;;;;;10.50;61.03;102471.91;5067274;28;19925;-52
2022/10/07 06:55:01;;;;;;;;;;;;;;;10.53;61.08;102473.56;5065764;28;19920;-54
2022/10/07 06:57:26;;;;;;;;;;;;;;;10.56;61.14;102472.66;5067128;28;19929;-54
2022/10/07 06:59:53;;;;;;;;;;;;;;;10.61;61.37;102473.34;5064184;28;20305;-52
2022/10/07 07:02:19;;;;;;;;;;;;;;;10.65;61.30;102469.72;5065663;28;20526;-57
2022/10/07 07:04:44;;;;;;;;;;;;;;;10.67;61.14;102471.38;5065690;28;19957;-55
2022/10/07 07:07:10;;;;;;;;;;;;;;;10.71;61.22;102468.66;5067165;28;19916;-54
2022/10/07 07:09:35;;;;;;;;;;;;;;;10.72;61.38;102471.28;5067047;28;19923;-53
2022/10/07 07:12:01;;;;;;;;;;;;;;;10.75;61.24;102467.66;5066942;28;19986;-52
2022/10/07 07:14:27;;;;;;;;;;;;;;;10.81;61.29;102470.13;5060716;28;19926;-53
2022/10/07 07:16:53;;;;;;;;;;;;;;;10.83;61.30;102469.16;5064771;28;20671;-54
2022/10/07 07:19:18;;;;;;;;;;;;;;;10.87;61.49;102467.28;5063012;28;19917;-53
2022/10/07 07:21:43;;;;;;;;;;;;;;;10.88;61.52;102461.09;5065606;28;19932;-53
2022/10/07 07:24:08;;;;;;;;;;;;;;;10.93;61.52;102459.19;5065057;28;20065;-52
2022/10/07 07:26:34;;;;;;;;;;;;;;;10.97;61.39;102460.81;5065537;28;20267;-52
2022/10/07 07:29:01;;;;;;;;;;;;;;;11.04;61.82;102460.63;5064441;28;19929;-54
2022/10/07 07:31:27;;;;;;;;;;;;;;;11.09;61.62;102461.34;5061834;28;20911;-57
2022/10/07 07:33:54;;;;;;;;;;;;;;;11.13;61.39;102457.69;5065191;28;19916;-53
2022/10/07 07:36:21;;;;;;;;;;;;;;;11.17;61.55;102467.22;5067828;28;19924;-52
2022/10/07 07:38:54;;;;;;;;;;;;;;;11.22;61.62;102459.16;5062814;28;19924;-54
2022/10/07 07:41:20;;;;;;;;;;;;;;;11.26;61.50;102461.66;5062436;28;19921;-52
2022/10/07 07:43:47;;;;;;;;;;;;;;;11.30;61.63;102454.50;5062215;28;19917;-55
2022/10/07 07:46:13;;;;;;;;;;;;;;;11.34;61.54;102455.25;5065000;28;20026;-52
2022/10/07 07:48:38;;;;;;;;;;;;;;;11.38;61.62;102456.88;5064785;28;20015;-53
2022/10/07 07:51:05;;;;;;;;;;;;;;;11.41;61.69;102454.16;5068055;28;19925;-54
2022/10/07 07:53:30;;;;;;;;;;;;;;;11.46;61.77;102451.34;5067573;28;20345;-54
2022/10/07 07:55:56;;;;;;;;;;;;;;;11.51;61.58;102447.63;5064855;28;19931;-53
2022/10/07 07:58:23;;;;;;;;;;;;;;;11.56;61.57;102444.84;5068814;28;20069;-54
2022/10/07 08:01:07;;;;;;;;;;;;;;;11.61;61.62;102445.56;5071141;28;19917;-54
2022/10/07 08:03:36;;;;;;;;;;;;;;;11.66;61.75;102448.03;5069736;28;19912;-53
2022/10/07 08:06:02;;;;;;;;;;;;;;;11.71;61.76;102452.22;5066508;28;19917;-52
2022/10/07 08:08:28;;;;;;;;;;;;;;;11.76;61.63;102446.78;5070229;28;19924;-55
2022/10/07 08:10:53;;;;;;;;;;;;;;;11.81;61.75;102446.59;5070499;28;20270;-55
2022/10/07 08:13:19;;;;;;;;;;;;;;;11.85;61.75;102438.56;5067961;28;19927;-55
2022/10/07 08:15:45;;;;;;;;;;;;;;;11.89;61.74;102432.22;5071229;28;19928;-53
2022/10/07 08:18:10;;;;;;;;;;;;;;;11.96;61.78;102432.84;5067717;28;20350;-51
2022/10/07 08:20:38;;;;;;;;;;;;;;;12.02;61.71;102426.56;5066621;28;19924;-54
2022/10/07 08:23:04;;;;;;;;;;;;;;;12.06;61.63;102422.88;5070548;28;20293;-52
2022/10/07 08:25:29;;;;;;;;;;;;;;;12.10;61.63;102421.84;5066409;28;19923;-54
2022/10/07 08:27:54;;;;;;;;;;;;;;;12.16;61.86;102421.63;5064697;28;19956;-52
2022/10/07 08:30:19;;;;;;;;;;;;;;;12.20;61.88;102415.28;5067577;28;19927;-54
2022/10/07 08:32:45;;;;;;;;;;;;;;;12.26;61.70;102415.97;5069798;28;19973;-54
2022/10/07 08:35:10;;;;;;;;;;;;;;;12.31;61.87;102411.41;5069164;28;20373;-54
2022/10/07 08:37:35;;;;;;;;;;;;;;;12.35;61.87;102400.66;5070085;28;20427;-56
2022/10/07 08:40:01;;;;;;;;;;;;;;;12.41;61.75;102406.59;5064764;28;19927;-53
2022/10/07 08:42:31;;;;;;;;;;;;;;;12.47;61.84;102393.16;5066048;28;20018;-54
2022/10/07 08:44:56;;;;;;;;;;;;;;;12.54;61.76;102399.06;5058275;28;19916;-54
2022/10/07 08:47:29;;;;;;;;;;;;;;;12.59;61.69;102392.69;5064998;28;19940;-51
2022/10/07 08:50:06;;;;;;;;;;;;;;;12.65;61.69;102397.72;5068133;28;19973;-56
2022/10/07 08:52:35;;;;;;;;;;;;;;;12.74;61.72;102387.69;5083121;28;19916;-54
2022/10/07 08:55:00;;;;;;;;;;;;;;;12.81;61.45;102387.38;5067637;28;19966;-55
2022/10/07 08:57:37;;;;;;;;;;;;;;;12.90;61.38;102380.88;5068132;28;20373;-55
2022/10/07 09:00:05;;;;;;;;;;;;;;;12.99;61.28;102387.56;5066283;28;20538;-54
2022/10/07 09:02:37;;;;;;;;;;;;;;;13.06;60.76;102375.81;5064238;28;20381;-54
2022/10/07 09:05:16;;;;;;;;;;;;;;;13.14;60.55;102382.53;5063820;28;19960;-55
2022/10/07 09:07:52;;;;;;;;;;;;;;;13.20;60.67;102377.00;5066350;28;20431;-54
2022/10/07 09:10:18;;;;;;;;;;;;;;;13.25;60.45;102375.88;5066191;28;19916;-54
2022/10/07 09:12:43;;;;;;;;;;;;;;;13.31;60.62;102369.47;5069069;28;20019;-54
2022/10/07 09:15:27;;;;;;;;;;;;;;;13.36;60.27;102372.78;5070295;28;19939;-52
2022/10/07 09:18:01;;;;;;;;;;;;;;;13.41;60.31;102368.16;5067461;28;20429;-54
2022/10/07 09:20:30;;;;;;;;;;;;;;;13.48;60.10;102373.19;5068701;28;19926;-52
2022/10/07 09:22:56;;;;;;;;;;;;;;;13.52;60.09;102366.84;5065406;28;19917;-52
2022/10/07 09:25:30;;;;;;;;;;;;;;;13.56;60.23;102360.47;5066059;28;19940;-54
2022/10/07 09:27:56;;;;;;;;;;;;;;;13.61;60.18;102358.50;5066253;28;20366;-55
2022/10/07 09:30:22;;;;;;;;;;;;;;;13.66;60.06;102355.63;5068142;28;19928;-55
2022/10/07 09:32:48;;;;;;;;;;;;;;;13.72;60.01;102352.72;5064904;28;19936;-51
2022/10/07 09:35:16;;;;;;;;;;;;;;;13.75;59.98;102343.78;5070147;28;19924;-54
2022/10/07 09:37:53;;;;;;;;;;;;;;;13.81;60.11;102346.16;5066286;28;19924;-54
2022/10/07 09:43:23;;;;;;;;;;;;;;;13.93;59.91;102337.66;5067647;28;20490;-52
2022/10/07 09:45:48;;;;;;;;;;;;;;;13.99;59.61;102333.84;5066506;28;19924;-54
2022/10/07 09:48:19;;;;;;;;;;;;;;;14.06;59.68;102331.78;5066545;28;20305;-53
2022/10/07 09:50:45;;;;;;;;;;;;;;;14.10;59.63;102330.72;5066656;28;19931;-54
2022/10/07 09:53:21;;;;;;;;;;;;;;;14.15;59.53;102326.03;5059040;28;19924;-54
2022/10/07 09:55:47;;;;;;;;;;;;;;;14.22;59.39;102324.81;5064730;28;20523;-55
2022/10/07 09:58:18;;;;;;;;;;;;;;;14.27;59.32;102316.66;5064958;28;19929;-54
2022/10/07 10:00:47;;;;;;;;;;;;;;;14.32;59.21;102317.31;5065122;28;19920;-53
2022/10/07 10:03:13;;;;;;;;;;;;;;;14.36;59.22;102315.34;5068341;28;20046;-54
2022/10/07 10:05:40;;;;;;;;;;;;;;;14.39;59.17;102315.22;5068875;28;19916;-54
2022/10/07 10:08:05;;;;;;;;;;;;;;;14.43;59.08;102309.69;5064660;28;20433;-54
2022/10/07 10:10:32;;;;;;;;;;;;;;;14.50;58.80;102309.41;5063901;28;20104;-54
2022/10/07 10:12:59;;;;;;;;;;;;;;;14.54;58.76;102305.63;5058629;28;19956;-53
2022/10/07 10:15:26;;;;;;;;;;;;;;;14.56;58.82;102288.75;5065275;28;20344;-53
2022/10/07 10:17:53;;;;;;;;;;;;;;;14.61;58.85;102285.88;5063703;28;19928;-54
2022/10/07 10:20:18;;;;;;;;;;;;;;;14.66;58.73;102282.97;5063385;28;19923;-51
2022/10/07 10:22:44;;;;;;;;;;;;;;;14.70;58.61;102276.63;5061411;28;19924;-53
2022/10/07 10:28:07;;;;;;;;;;;;;;;14.78;58.31;102274.44;5066579;28;19970;-56
2022/10/07 10:30:36;;;;;;;;;;;;;;;14.82;58.07;102268.06;5065508;28;19924;-52
2022/10/07 10:33:26;;;;;;;;;;;;;;;14.84;58.05;102267.97;5066764;28;19940;-54
2022/10/07 10:36:04;;;;;;;;;;;;;;;14.89;58.05;102256.22;5066291;28;19924;-55
2022/10/07 10:38:31;;;;;;;;;;;;;;;14.94;58.09;102255.97;5060921;28;20428;-51
2022/10/07 10:41:02;;;;;;;;;;;;;;;14.99;57.89;102255.72;5062690;28;20013;-51
2022/10/07 10:43:34;;;;;;;;;;;;;;;15.02;57.95;102244.97;5062187;28;20370;-56
2022/10/07 10:45:59;;;;;;;;;;;;;;;15.06;57.84;102243.84;5062574;28;19920;-53
2022/10/07 10:48:35;;;;;;;;;;;;;;;15.11;57.79;102247.13;5062828;28;20385;-53
2022/10/07 10:51:13;;;;;;;;;;;;;;;15.14;57.72;102235.47;5064664;28;20003;-52
2022/10/07 10:53:44;;;;;;;;;;;;;;;15.17;57.72;102233.56;5066963;28;19977;-52
2022/10/07 10:56:30;;;;;;;;;;;;;;;15.21;57.69;102227.13;5067444;28;19970;-58
2022/10/07 10:59:03;;;;;;;;;;;;;;;15.26;57.64;102231.31;5055712;28;20377;-57
2022/10/07 11:01:35;;;;;;;;;;;;;;;15.29;57.49;102220.56;5067091;28;20019;-55
2022/10/07 11:04:13;;;;;;;;;;;;;;;15.31;57.47;102219.53;5066325;28;19978;-54
2022/10/07 11:06:41;;;;;;;;;;;;;;;15.34;57.38;102211.41;5064357;28;19924;-54
2022/10/07 11:09:14;;;;;;;;;;;;;;;15.38;57.33;102206.78;5066774;28;19924;-55
2022/10/07 11:11:40;;;;;;;;;;;;;;;15.42;57.40;102202.19;5066856;28;20013;-53
2022/10/07 11:14:13;;;;;;;;;;;;;;;15.46;57.22;102195.75;5064805;28;19929;-52
2022/10/07 11:16:44;;;;;;;;;;;;;;;15.47;57.20;102182.44;5064384;28;19935;-57
2022/10/07 11:19:09;;;;;;;;;;;;;;;15.52;57.27;102180.34;5067320;28;20015;-57
2022/10/07 11:21:48;;;;;;;;;;;;;;;15.60;57.24;102176.44;5064988;28;19999;-58
2022/10/07 11:24:26;;;;;;;;;;;;;;;15.63;57.24;102173.59;5056809;28;20074;-53
2022/10/07 11:27:08;;;;;;;;;;;;;;;15.67;57.18;102164.50;5063966;28;19928;-52
2022/10/07 11:29:47;;;;;;;;;;;;;;;15.71;57.17;102152.78;5062502;28;19920;-54
2022/10/07 11:32:12;;;;;;;;;;;;;;;15.74;57.18;102152.63;5066317;28;19921;-57
2022/10/07 11:34:46;;;;;;;;;;;;;;;15.78;57.04;102143.53;5071551;28;19938;-52
2022/10/07 11:37:30;;;;;;;;;;;;;;;15.79;57.07;102137.28;5068848;28;19928;-53
2022/10/07 11:39:56;;;;;;;;;;;;;;;15.84;57.10;102129.06;5072137;28;20190;-56
2022/10/07 11:42:26;;;;;;;;;;;;;;;15.88;56.99;102124.47;5067358;28;20351;-53
2022/10/07 11:45:00;;;;;;;;;;;;;;;15.92;56.93;102118.03;5064534;28;20018;-54
2022/10/07 11:47:32;;;;;;;;;;;;;;;15.99;56.92;102124.69;5069305;28;19971;-56
2022/10/07 11:50:02;;;;;;;;;;;;;;;16.02;56.91;102111.22;5071590;28;19919;-52
2022/10/07 11:52:30;;;;;;;;;;;;;;;16.07;56.82;102103.84;5067863;28;19973;-53
2022/10/07 11:55:02;;;;;;;;;;;;;;;16.14;56.61;102101.69;5068305;28;19959;-52
2022/10/07 11:57:30;;;;;;;;;;;;;;;16.19;56.59;102098.75;5065768;28;20344;-54
2022/10/07 11:59:58;;;;;;;;;;;;;;;16.22;56.58;102095.91;5065145;28;20375;-54
2022/10/07 12:02:27;;;;;;;;;;;;;;;16.24;56.52;102086.91;5068773;28;20400;-54
2022/10/07 12:04:52;;;;;;;;;;;;;;;16.28;56.64;102083.13;5067984;28;20263;-53
2022/10/07 12:07:36;;;;;;;;;;;;;;;16.35;56.44;102082.72;5070618;28;19967;-53
2022/10/07 12:10:04;;;;;;;;;;;;;;;16.39;56.36;102069.19;5069325;28;19959;-53
2022/10/07 12:12:45;;;;;;;;;;;;;;;16.45;56.46;102059.97;5068567;28;19920;-53
2022/10/07 12:15:29;;;;;;;;;;;;;;;16.53;56.28;102056.84;5069296;28;19925;-53
2022/10/07 12:17:56;;;;;;;;;;;;;;;16.61;55.87;102057.22;5069714;28;19917;-54
2022/10/07 12:20:33;;;;;;;;;;;;;;;16.66;55.45;102049.81;5065997;28;19920;-52
2022/10/07 12:23:24;;;;;;;;;;;;;;;16.71;55.21;102045.03;5067154;28;20289;-51
2022/10/07 12:25:50;;;;;;;;;;;;;;;16.75;55.04;102043.91;5066572;28;19966;-54
2022/10/07 12:28:34;;;;;;;;;;;;;;;16.80;54.69;102034.78;5068843;28;19928;-52
2022/10/07 12:31:05;;;;;;;;;;;;;;;16.83;54.91;102029.28;5069687;28;19920;-53
2022/10/07 12:33:36;;;;;;;;;;;;;;;16.86;54.79;102034.41;5069535;28;19931;-55
2022/10/07 12:36:23;;;;;;;;;;;;;;;16.88;54.60;102028.03;5067225;28;19924;-55
2022/10/07 12:38:54;;;;;;;;;;;;;;;16.92;54.55;102012.75;5069328;28;19916;-51
2022/10/07 12:41:23;;;;;;;;;;;;;;;16.94;54.58;102016.16;5069728;28;20393;-54
2022/10/07 12:43:49;;;;;;;;;;;;;;;16.98;54.32;102015.03;5069544;28;19920;-54
2022/10/07 12:46:17;;;;;;;;;;;;;;;17.02;54.36;102019.19;5065962;28;19916;-54
2022/10/07 12:48:49;;;;;;;;;;;;;;;17.09;54.26;102008.16;5070557;28;19920;-54
2022/10/07 12:51:18;;;;;;;;;;;;;;;17.13;54.14;102004.34;5067475;28;19917;-53
2022/10/07 12:53:46;;;;;;;;;;;;;;;17.18;53.97;102004.88;5070203;28;19932;-54